sensor_id;sensor_type;location;lat;lon;timestamp;P1;durP1;ratioP1;P2;durP2;ratioP2
23898;SDS011;20544;50.018;20.010;2022-10-26T00:01:13;14.78;;;9.80;;
23898;SDS011;20544;50.018;20.010;2022-10-26T00:04:30;13.63;;;10.20;;
23898;SDS011;20544;50.018;20.010;2022-10-26T00:07:46;13.73;;;9.75;;
23898;SDS011;20544;50.018;20.010;2022-10-26T00:11:02;14.30;;;9.75;;
23898;SDS011;20544;50.018;20.010;2022-10-26T00:14:19;13.93;;;9.53;;
23898;SDS011;20544;50.018;20.010;2022-10-26T00:17:36;12.78;;;9.40;;
23898;SDS011;20544;50.018;20.010;2022-10-26T00:20:53;13.18;;;10.33;;
23898;SDS011;20544;50.018;20.010;2022-10-26T00:24:14;12.38;;;9.48;;
23898;SDS011;20544;50.018;20.010;2022-10-26T00:27:30;13.65;;;8.60;;
23898;SDS011;20544;50.018;20.010;2022-10-26T00:30:46;11.45;;;8.25;;
23898;SDS011;20544;50.018;20.010;2022-10-26T00:34:04;13.10;;;9.33;;
23898;SDS011;20544;50.018;20.010;2022-10-26T00:37:23;12.18;;;7.35;;
23898;SDS011;20544;50.018;20.010;2022-10-26T00:40:39;10.45;;;6.95;;
23898;SDS011;20544;50.018;20.010;2022-10-26T00:43:56;12.65;;;7.40;;
23898;SDS011;20544;50.018;20.010;2022-10-26T00:47:13;11.10;;;7.00;;
23898;SDS011;20544;50.018;20.010;2022-10-26T00:50:33;10.55;;;6.95;;
23898;SDS011;20544;50.018;20.010;2022-10-26T00:53:53;11.48;;;7.70;;
23898;SDS011;20544;50.018;20.010;2022-10-26T00:57:10;9.58;;;7.73;;
23898;SDS011;20544;50.018;20.010;2022-10-26T01:00:28;9.95;;;8.10;;
23898;SDS011;20544;50.018;20.010;2022-10-26T01:03:44;12.45;;;8.60;;
23898;SDS011;20544;50.018;20.010;2022-10-26T01:07:02;17.28;;;10.38;;
23898;SDS011;20544;50.018;20.010;2022-10-26T01:10:19;16.03;;;10.13;;
23898;SDS011;20544;50.018;20.010;2022-10-26T01:13:35;14.75;;;10.78;;
23898;SDS011;20544;50.018;20.010;2022-10-26T01:16:56;13.78;;;10.23;;
23898;SDS011;20544;50.018;20.010;2022-10-26T01:24:22;14.63;;;10.40;;
23898;SDS011;20544;50.018;20.010;2022-10-26T01:28:15;12.65;;;9.80;;
23898;SDS011;20544;50.018;20.010;2022-10-26T01:31:40;13.60;;;9.85;;
23898;SDS011;20544;50.018;20.010;2022-10-26T01:35:01;12.93;;;9.90;;
23898;SDS011;20544;50.018;20.010;2022-10-26T01:38:28;18.18;;;10.18;;
23898;SDS011;20544;50.018;20.010;2022-10-26T01:41:49;17.78;;;9.88;;
23898;SDS011;20544;50.018;20.010;2022-10-26T01:45:09;16.23;;;10.88;;
23898;SDS011;20544;50.018;20.010;2022-10-26T01:48:27;15.83;;;10.33;;
23898;SDS011;20544;50.018;20.010;2022-10-26T01:51:45;15.15;;;9.93;;
23898;SDS011;20544;50.018;20.010;2022-10-26T01:55:04;11.95;;;9.25;;
23898;SDS011;20544;50.018;20.010;2022-10-26T01:58:59;14.18;;;9.55;;
23898;SDS011;20544;50.018;20.010;2022-10-26T02:02:38;11.80;;;8.68;;
23898;SDS011;20544;50.018;20.010;2022-10-26T02:06:16;13.98;;;9.60;;
23898;SDS011;20544;50.018;20.010;2022-10-26T02:09:40;11.33;;;8.95;;
23898;SDS011;20544;50.018;20.010;2022-10-26T02:13:02;11.83;;;8.50;;
23898;SDS011;20544;50.018;20.010;2022-10-26T02:16:23;12.83;;;9.28;;
23898;SDS011;20544;50.018;20.010;2022-10-26T02:19:42;12.43;;;9.93;;
23898;SDS011;20544;50.018;20.010;2022-10-26T02:23:03;14.00;;;9.48;;
23898;SDS011;20544;50.018;20.010;2022-10-26T02:26:21;12.33;;;8.37;;
23898;SDS011;20544;50.018;20.010;2022-10-26T02:29:40;13.05;;;9.10;;
23898;SDS011;20544;50.018;20.010;2022-10-26T02:32:59;12.73;;;9.48;;
23898;SDS011;20544;50.018;20.010;2022-10-26T02:36:19;13.50;;;9.27;;
23898;SDS011;20544;50.018;20.010;2022-10-26T02:39:38;12.58;;;9.53;;
23898;SDS011;20544;50.018;20.010;2022-10-26T02:42:58;13.80;;;9.55;;
23898;SDS011;20544;50.018;20.010;2022-10-26T02:46:17;13.38;;;8.65;;
23898;SDS011;20544;50.018;20.010;2022-10-26T02:49:36;10.73;;;8.65;;
23898;SDS011;20544;50.018;20.010;2022-10-26T02:52:56;15.75;;;9.55;;
23898;SDS011;20544;50.018;20.010;2022-10-26T02:56:16;15.18;;;9.90;;
23898;SDS011;20544;50.018;20.010;2022-10-26T02:59:36;11.20;;;8.83;;
23898;SDS011;20544;50.018;20.010;2022-10-26T03:02:55;13.98;;;9.23;;
23898;SDS011;20544;50.018;20.010;2022-10-26T03:06:13;13.45;;;9.70;;
23898;SDS011;20544;50.018;20.010;2022-10-26T03:09:35;15.98;;;10.20;;
23898;SDS011;20544;50.018;20.010;2022-10-26T03:12:51;14.58;;;10.75;;
23898;SDS011;20544;50.018;20.010;2022-10-26T03:16:07;14.90;;;9.85;;
23898;SDS011;20544;50.018;20.010;2022-10-26T03:19:23;13.18;;;9.55;;
23898;SDS011;20544;50.018;20.010;2022-10-26T03:22:39;13.08;;;9.38;;
23898;SDS011;20544;50.018;20.010;2022-10-26T03:25:57;13.38;;;9.50;;
23898;SDS011;20544;50.018;20.010;2022-10-26T03:29:13;13.43;;;9.80;;
23898;SDS011;20544;50.018;20.010;2022-10-26T03:32:29;13.10;;;8.65;;
23898;SDS011;20544;50.018;20.010;2022-10-26T03:35:45;12.45;;;9.43;;
23898;SDS011;20544;50.018;20.010;2022-10-26T03:39:06;12.18;;;8.68;;
23898;SDS011;20544;50.018;20.010;2022-10-26T03:42:22;14.73;;;11.25;;
23898;SDS011;20544;50.018;20.010;2022-10-26T03:45:38;14.20;;;11.20;;
23898;SDS011;20544;50.018;20.010;2022-10-26T03:48:56;11.68;;;9.68;;
23898;SDS011;20544;50.018;20.010;2022-10-26T03:52:12;15.18;;;10.95;;
23898;SDS011;20544;50.018;20.010;2022-10-26T03:55:29;17.03;;;11.10;;
23898;SDS011;20544;50.018;20.010;2022-10-26T03:58:46;15.60;;;10.33;;
23898;SDS011;20544;50.018;20.010;2022-10-26T04:02:02;14.85;;;10.83;;
23898;SDS011;20544;50.018;20.010;2022-10-26T04:05:18;15.98;;;11.13;;
23898;SDS011;20544;50.018;20.010;2022-10-26T04:08:34;17.35;;;10.90;;
23898;SDS011;20544;50.018;20.010;2022-10-26T04:11:49;14.63;;;10.93;;
23898;SDS011;20544;50.018;20.010;2022-10-26T04:15:06;17.73;;;10.90;;
23898;SDS011;20544;50.018;20.010;2022-10-26T04:18:22;15.23;;;10.10;;
23898;SDS011;20544;50.018;20.010;2022-10-26T04:21:38;13.75;;;10.25;;
23898;SDS011;20544;50.018;20.010;2022-10-26T04:24:54;15.43;;;10.38;;
23898;SDS011;20544;50.018;20.010;2022-10-26T04:28:11;15.93;;;10.53;;
23898;SDS011;20544;50.018;20.010;2022-10-26T04:31:27;17.68;;;10.55;;
23898;SDS011;20544;50.018;20.010;2022-10-26T04:34:43;16.75;;;10.65;;
23898;SDS011;20544;50.018;20.010;2022-10-26T04:38:00;17.20;;;11.50;;
23898;SDS011;20544;50.018;20.010;2022-10-26T04:41:18;21.03;;;12.60;;
23898;SDS011;20544;50.018;20.010;2022-10-26T04:44:37;20.08;;;12.58;;
23898;SDS011;20544;50.018;20.010;2022-10-26T04:47:59;18.38;;;11.35;;
23898;SDS011;20544;50.018;20.010;2022-10-26T04:51:26;18.03;;;11.45;;
23898;SDS011;20544;50.018;20.010;2022-10-26T04:54:42;16.35;;;10.80;;
23898;SDS011;20544;50.018;20.010;2022-10-26T04:57:58;14.55;;;10.88;;
23898;SDS011;20544;50.018;20.010;2022-10-26T05:01:15;18.95;;;11.85;;
23898;SDS011;20544;50.018;20.010;2022-10-26T05:04:31;19.88;;;12.15;;
23898;SDS011;20544;50.018;20.010;2022-10-26T05:07:53;17.75;;;11.63;;
23898;SDS011;20544;50.018;20.010;2022-10-26T05:11:10;17.68;;;11.80;;
23898;SDS011;20544;50.018;20.010;2022-10-26T05:14:27;18.55;;;13.00;;
23898;SDS011;20544;50.018;20.010;2022-10-26T05:17:43;17.83;;;12.70;;
23898;SDS011;20544;50.018;20.010;2022-10-26T05:21:01;16.60;;;12.23;;
23898;SDS011;20544;50.018;20.010;2022-10-26T05:24:18;16.05;;;11.28;;
23898;SDS011;20544;50.018;20.010;2022-10-26T05:27:34;17.23;;;11.80;;
23898;SDS011;20544;50.018;20.010;2022-10-26T05:30:51;13.80;;;11.50;;
23898;SDS011;20544;50.018;20.010;2022-10-26T05:34:08;17.50;;;12.03;;
23898;SDS011;20544;50.018;20.010;2022-10-26T05:37:24;19.48;;;12.25;;
23898;SDS011;20544;50.018;20.010;2022-10-26T05:40:49;15.78;;;11.78;;
23898;SDS011;20544;50.018;20.010;2022-10-26T05:44:06;17.10;;;12.08;;
23898;SDS011;20544;50.018;20.010;2022-10-26T05:47:25;20.70;;;12.25;;
23898;SDS011;20544;50.018;20.010;2022-10-26T05:50:41;18.15;;;11.73;;
23898;SDS011;20544;50.018;20.010;2022-10-26T05:53:58;18.80;;;11.70;;
23898;SDS011;20544;50.018;20.010;2022-10-26T05:57:16;18.80;;;12.10;;
23898;SDS011;20544;50.018;20.010;2022-10-26T06:00:34;17.90;;;12.98;;
23898;SDS011;20544;50.018;20.010;2022-10-26T06:04:00;14.70;;;12.83;;
23898;SDS011;20544;50.018;20.010;2022-10-26T06:07:26;20.50;;;14.23;;
23898;SDS011;20544;50.018;20.010;2022-10-26T06:10:44;19.18;;;13.40;;
23898;SDS011;20544;50.018;20.010;2022-10-26T06:14:02;21.75;;;13.73;;
23898;SDS011;20544;50.018;20.010;2022-10-26T06:17:23;19.70;;;13.73;;
23898;SDS011;20544;50.018;20.010;2022-10-26T06:20:58;20.65;;;15.43;;
23898;SDS011;20544;50.018;20.010;2022-10-26T06:24:28;24.53;;;15.10;;
23898;SDS011;20544;50.018;20.010;2022-10-26T06:27:50;24.98;;;15.73;;
23898;SDS011;20544;50.018;20.010;2022-10-26T06:31:11;20.55;;;14.70;;
23898;SDS011;20544;50.018;20.010;2022-10-26T06:34:30;23.00;;;14.28;;
23898;SDS011;20544;50.018;20.010;2022-10-26T06:37:48;24.18;;;14.45;;
23898;SDS011;20544;50.018;20.010;2022-10-26T06:41:07;24.50;;;15.03;;
23898;SDS011;20544;50.018;20.010;2022-10-26T06:44:28;25.93;;;14.90;;
23898;SDS011;20544;50.018;20.010;2022-10-26T06:47:47;23.05;;;14.13;;
23898;SDS011;20544;50.018;20.010;2022-10-26T06:51:08;20.33;;;14.25;;
23898;SDS011;20544;50.018;20.010;2022-10-26T06:54:30;22.13;;;13.98;;
23898;SDS011;20544;50.018;20.010;2022-10-26T06:57:58;21.03;;;13.55;;
23898;SDS011;20544;50.018;20.010;2022-10-26T07:01:15;20.15;;;12.83;;
23898;SDS011;20544;50.018;20.010;2022-10-26T07:04:32;16.20;;;12.25;;
23898;SDS011;20544;50.018;20.010;2022-10-26T07:07:48;17.28;;;10.58;;
23898;SDS011;20544;50.018;20.010;2022-10-26T07:11:05;14.73;;;10.53;;
23898;SDS011;20544;50.018;20.010;2022-10-26T07:14:21;18.00;;;10.23;;
23898;SDS011;20544;50.018;20.010;2022-10-26T07:17:42;16.30;;;9.38;;
23898;SDS011;20544;50.018;20.010;2022-10-26T07:20:59;14.93;;;8.95;;
23898;SDS011;20544;50.018;20.010;2022-10-26T07:24:16;14.65;;;9.15;;
23898;SDS011;20544;50.018;20.010;2022-10-26T07:27:32;13.55;;;8.30;;
23898;SDS011;20544;50.018;20.010;2022-10-26T07:30:49;10.53;;;7.80;;
23898;SDS011;20544;50.018;20.010;2022-10-26T07:34:05;9.23;;;5.38;;
23898;SDS011;20544;50.018;20.010;2022-10-26T07:37:31;7.65;;;4.38;;
23898;SDS011;20544;50.018;20.010;2022-10-26T07:40:48;6.48;;;4.28;;
23898;SDS011;20544;50.018;20.010;2022-10-26T07:44:04;8.33;;;5.80;;
23898;SDS011;20544;50.018;20.010;2022-10-26T07:50:36;7.15;;;4.20;;
23898;SDS011;20544;50.018;20.010;2022-10-26T07:53:53;7.78;;;3.35;;
23898;SDS011;20544;50.018;20.010;2022-10-26T07:57:09;6.53;;;3.75;;
23898;SDS011;20544;50.018;20.010;2022-10-26T08:00:26;6.15;;;3.70;;
23898;SDS011;20544;50.018;20.010;2022-10-26T08:03:43;8.15;;;3.95;;
23898;SDS011;20544;50.018;20.010;2022-10-26T08:07:01;7.13;;;3.70;;
23898;SDS011;20544;50.018;20.010;2022-10-26T08:10:17;8.60;;;4.60;;
23898;SDS011;20544;50.018;20.010;2022-10-26T08:13:33;6.83;;;3.83;;
23898;SDS011;20544;50.018;20.010;2022-10-26T08:16:52;6.90;;;3.60;;
23898;SDS011;20544;50.018;20.010;2022-10-26T08:20:10;6.80;;;3.48;;
23898;SDS011;20544;50.018;20.010;2022-10-26T08:23:27;7.88;;;3.70;;
23898;SDS011;20544;50.018;20.010;2022-10-26T08:26:43;6.03;;;3.43;;
23898;SDS011;20544;50.018;20.010;2022-10-26T08:30:00;8.93;;;5.70;;
23898;SDS011;20544;50.018;20.010;2022-10-26T08:33:17;7.28;;;4.28;;
23898;SDS011;20544;50.018;20.010;2022-10-26T08:36:36;7.67;;;3.80;;
23898;SDS011;20544;50.018;20.010;2022-10-26T08:39:52;7.38;;;4.13;;
23898;SDS011;20544;50.018;20.010;2022-10-26T08:43:11;6.13;;;3.48;;
23898;SDS011;20544;50.018;20.010;2022-10-26T08:46:31;5.63;;;3.38;;
23898;SDS011;20544;50.018;20.010;2022-10-26T08:49:52;6.50;;;3.70;;
23898;SDS011;20544;50.018;20.010;2022-10-26T08:53:14;6.50;;;3.23;;
23898;SDS011;20544;50.018;20.010;2022-10-26T08:56:36;6.05;;;3.40;;
23898;SDS011;20544;50.018;20.010;2022-10-26T08:59:57;6.20;;;3.53;;
23898;SDS011;20544;50.018;20.010;2022-10-26T09:03:17;9.53;;;3.65;;
23898;SDS011;20544;50.018;20.010;2022-10-26T09:06:34;7.65;;;3.58;;
23898;SDS011;20544;50.018;20.010;2022-10-26T09:09:58;7.18;;;3.63;;
23898;SDS011;20544;50.018;20.010;2022-10-26T09:13:24;6.68;;;2.95;;
23898;SDS011;20544;50.018;20.010;2022-10-26T09:16:45;4.90;;;3.08;;
23898;SDS011;20544;50.018;20.010;2022-10-26T09:20:15;5.15;;;2.98;;
23898;SDS011;20544;50.018;20.010;2022-10-26T09:24:00;5.63;;;2.80;;
23898;SDS011;20544;50.018;20.010;2022-10-26T09:27:23;6.35;;;2.40;;
23898;SDS011;20544;50.018;20.010;2022-10-26T09:30:44;10.53;;;6.90;;
23898;SDS011;20544;50.018;20.010;2022-10-26T09:34:01;4.40;;;2.73;;
23898;SDS011;20544;50.018;20.010;2022-10-26T09:37:24;3.60;;;2.50;;
23898;SDS011;20544;50.018;20.010;2022-10-26T09:40:45;5.55;;;2.60;;
23898;SDS011;20544;50.018;20.010;2022-10-26T09:44:07;6.00;;;2.85;;
23898;SDS011;20544;50.018;20.010;2022-10-26T09:47:32;4.40;;;2.30;;
23898;SDS011;20544;50.018;20.010;2022-10-26T09:50:51;6.85;;;2.60;;
23898;SDS011;20544;50.018;20.010;2022-10-26T09:54:12;5.15;;;1.83;;
23898;SDS011;20544;50.018;20.010;2022-10-26T09:57:32;4.55;;;1.88;;
23898;SDS011;20544;50.018;20.010;2022-10-26T10:00:57;4.00;;;2.03;;
23898;SDS011;20544;50.018;20.010;2022-10-26T10:04:22;6.43;;;2.45;;
23898;SDS011;20544;50.018;20.010;2022-10-26T10:07:41;4.63;;;2.10;;
23898;SDS011;20544;50.018;20.010;2022-10-26T10:10:58;5.78;;;2.55;;
23898;SDS011;20544;50.018;20.010;2022-10-26T10:14:18;5.45;;;2.30;;
23898;SDS011;20544;50.018;20.010;2022-10-26T10:17:37;3.78;;;2.48;;
23898;SDS011;20544;50.018;20.010;2022-10-26T10:20:58;5.38;;;2.43;;
23898;SDS011;20544;50.018;20.010;2022-10-26T10:24:26;4.50;;;2.30;;
23898;SDS011;20544;50.018;20.010;2022-10-26T10:27:45;5.80;;;2.03;;
23898;SDS011;20544;50.018;20.010;2022-10-26T10:31:17;41.45;;;35.43;;
23898;SDS011;20544;50.018;20.010;2022-10-26T10:34:39;49.18;;;39.93;;
23898;SDS011;20544;50.018;20.010;2022-10-26T10:37:55;7.95;;;5.05;;
23898;SDS011;20544;50.018;20.010;2022-10-26T10:41:17;5.40;;;2.48;;
23898;SDS011;20544;50.018;20.010;2022-10-26T10:44:37;5.48;;;1.90;;
23898;SDS011;20544;50.018;20.010;2022-10-26T10:48:00;3.83;;;1.60;;
23898;SDS011;20544;50.018;20.010;2022-10-26T10:51:20;5.13;;;2.30;;
23898;SDS011;20544;50.018;20.010;2022-10-26T10:54:38;4.73;;;2.40;;
23898;SDS011;20544;50.018;20.010;2022-10-26T10:57:59;4.65;;;1.78;;
23898;SDS011;20544;50.018;20.010;2022-10-26T11:01:22;6.53;;;2.05;;
23898;SDS011;20544;50.018;20.010;2022-10-26T11:04:50;4.38;;;1.70;;
23898;SDS011;20544;50.018;20.010;2022-10-26T11:08:18;2.23;;;1.65;;
23898;SDS011;20544;50.018;20.010;2022-10-26T11:11:38;4.20;;;2.00;;
23898;SDS011;20544;50.018;20.010;2022-10-26T11:14:58;4.08;;;1.63;;
23898;SDS011;20544;50.018;20.010;2022-10-26T11:18:18;5.85;;;1.80;;
23898;SDS011;20544;50.018;20.010;2022-10-26T11:21:41;2.88;;;1.23;;
23898;SDS011;20544;50.018;20.010;2022-10-26T11:25:03;3.35;;;1.50;;
23898;SDS011;20544;50.018;20.010;2022-10-26T11:28:31;3.85;;;1.55;;
23898;SDS011;20544;50.018;20.010;2022-10-26T11:31:52;3.35;;;1.50;;
23898;SDS011;20544;50.018;20.010;2022-10-26T11:35:15;3.65;;;1.45;;
23898;SDS011;20544;50.018;20.010;2022-10-26T11:38:39;4.43;;;1.63;;
23898;SDS011;20544;50.018;20.010;2022-10-26T11:42:02;2.53;;;1.20;;
23898;SDS011;20544;50.018;20.010;2022-10-26T11:45:27;3.25;;;1.30;;
23898;SDS011;20544;50.018;20.010;2022-10-26T11:48:49;2.95;;;1.20;;
23898;SDS011;20544;50.018;20.010;2022-10-26T11:52:11;3.25;;;1.50;;
23898;SDS011;20544;50.018;20.010;2022-10-26T11:55:35;2.50;;;1.20;;
23898;SDS011;20544;50.018;20.010;2022-10-26T11:59:13;4.20;;;1.43;;
23898;SDS011;20544;50.018;20.010;2022-10-26T12:02:35;3.40;;;1.50;;
23898;SDS011;20544;50.018;20.010;2022-10-26T12:05:54;3.55;;;1.35;;
23898;SDS011;20544;50.018;20.010;2022-10-26T12:09:15;2.40;;;1.33;;
23898;SDS011;20544;50.018;20.010;2022-10-26T12:12:39;3.85;;;1.40;;
23898;SDS011;20544;50.018;20.010;2022-10-26T12:16:00;4.13;;;1.80;;
23898;SDS011;20544;50.018;20.010;2022-10-26T12:19:27;5.63;;;3.90;;
23898;SDS011;20544;50.018;20.010;2022-10-26T12:22:48;4.65;;;2.30;;
23898;SDS011;20544;50.018;20.010;2022-10-26T12:30:30;3.10;;;1.50;;
23898;SDS011;20544;50.018;20.010;2022-10-26T12:33:49;5.15;;;1.60;;
23898;SDS011;20544;50.018;20.010;2022-10-26T12:37:21;3.30;;;1.55;;
23898;SDS011;20544;50.018;20.010;2022-10-26T12:40:46;2.65;;;1.20;;
23898;SDS011;20544;50.018;20.010;2022-10-26T12:44:33;2.55;;;1.48;;
23898;SDS011;20544;50.018;20.010;2022-10-26T12:48:01;4.38;;;1.45;;
23898;SDS011;20544;50.018;20.010;2022-10-26T12:51:42;3.83;;;1.58;;
23898;SDS011;20544;50.018;20.010;2022-10-26T12:55:13;3.08;;;1.53;;
23898;SDS011;20544;50.018;20.010;2022-10-26T12:59:02;2.40;;;1.30;;
23898;SDS011;20544;50.018;20.010;2022-10-26T13:02:36;3.75;;;1.90;;
23898;SDS011;20544;50.018;20.010;2022-10-26T13:09:58;3.15;;;1.23;;
23898;SDS011;20544;50.018;20.010;2022-10-26T13:13:20;3.18;;;1.08;;
23898;SDS011;20544;50.018;20.010;2022-10-26T13:16:39;4.08;;;1.18;;
23898;SDS011;20544;50.018;20.010;2022-10-26T13:20:00;3.05;;;1.35;;
23898;SDS011;20544;50.018;20.010;2022-10-26T13:23:28;2.67;;;1.03;;
23898;SDS011;20544;50.018;20.010;2022-10-26T13:30:56;1.90;;;1.20;;
23898;SDS011;20544;50.018;20.010;2022-10-26T13:34:17;5.58;;;1.28;;
23898;SDS011;20544;50.018;20.010;2022-10-26T13:37:39;3.43;;;1.40;;
23898;SDS011;20544;50.018;20.010;2022-10-26T13:41:03;2.13;;;1.18;;
23898;SDS011;20544;50.018;20.010;2022-10-26T13:44:29;3.45;;;1.10;;
23898;SDS011;20544;50.018;20.010;2022-10-26T13:47:53;4.60;;;1.63;;
23898;SDS011;20544;50.018;20.010;2022-10-26T13:51:15;2.88;;;1.38;;
23898;SDS011;20544;50.018;20.010;2022-10-26T13:54:35;7.83;;;2.40;;
23898;SDS011;20544;50.018;20.010;2022-10-26T13:58:04;5.23;;;1.80;;
23898;SDS011;20544;50.018;20.010;2022-10-26T14:01:33;3.80;;;1.70;;
23898;SDS011;20544;50.018;20.010;2022-10-26T14:04:58;2.85;;;1.53;;
23898;SDS011;20544;50.018;20.010;2022-10-26T14:08:22;5.00;;;1.88;;
23898;SDS011;20544;50.018;20.010;2022-10-26T14:11:43;5.83;;;1.65;;
23898;SDS011;20544;50.018;20.010;2022-10-26T14:15:07;3.98;;;2.68;;
23898;SDS011;20544;50.018;20.010;2022-10-26T14:18:29;7.03;;;3.50;;
23898;SDS011;20544;50.018;20.010;2022-10-26T14:21:49;3.20;;;1.80;;
23898;SDS011;20544;50.018;20.010;2022-10-26T14:25:17;4.05;;;1.35;;
23898;SDS011;20544;50.018;20.010;2022-10-26T14:28:42;3.93;;;1.73;;
23898;SDS011;20544;50.018;20.010;2022-10-26T14:32:17;5.88;;;1.70;;
23898;SDS011;20544;50.018;20.010;2022-10-26T14:35:44;3.90;;;1.78;;
23898;SDS011;20544;50.018;20.010;2022-10-26T14:39:02;5.70;;;1.85;;
23898;SDS011;20544;50.018;20.010;2022-10-26T14:42:26;2.58;;;1.53;;
23898;SDS011;20544;50.018;20.010;2022-10-26T14:45:47;14.55;;;9.53;;
23898;SDS011;20544;50.018;20.010;2022-10-26T14:49:05;21.53;;;13.10;;
23898;SDS011;20544;50.018;20.010;2022-10-26T14:52:31;6.35;;;3.58;;
23898;SDS011;20544;50.018;20.010;2022-10-26T14:59:10;6.65;;;2.68;;
23898;SDS011;20544;50.018;20.010;2022-10-26T15:02:36;4.15;;;1.93;;
23898;SDS011;20544;50.018;20.010;2022-10-26T15:05:53;3.28;;;2.23;;
23898;SDS011;20544;50.018;20.010;2022-10-26T15:12:51;8.43;;;2.93;;
23898;SDS011;20544;50.018;20.010;2022-10-26T15:16:15;6.00;;;2.03;;
23898;SDS011;20544;50.018;20.010;2022-10-26T15:19:48;5.65;;;3.05;;
23898;SDS011;20544;50.018;20.010;2022-10-26T15:23:12;8.38;;;3.68;;
23898;SDS011;20544;50.018;20.010;2022-10-26T15:26:30;9.95;;;3.33;;
23898;SDS011;20544;50.018;20.010;2022-10-26T15:29:48;11.30;;;3.40;;
23898;SDS011;20544;50.018;20.010;2022-10-26T15:33:19;7.53;;;3.23;;
23898;SDS011;20544;50.018;20.010;2022-10-26T15:36:36;8.83;;;3.10;;
23898;SDS011;20544;50.018;20.010;2022-10-26T15:39:54;9.03;;;3.63;;
23898;SDS011;20544;50.018;20.010;2022-10-26T15:43:13;6.85;;;3.18;;
23898;SDS011;20544;50.018;20.010;2022-10-26T15:46:33;10.20;;;3.78;;
23898;SDS011;20544;50.018;20.010;2022-10-26T15:49:50;11.78;;;4.15;;
23898;SDS011;20544;50.018;20.010;2022-10-26T15:53:07;14.70;;;3.90;;
23898;SDS011;20544;50.018;20.010;2022-10-26T15:56:28;14.98;;;5.15;;
23898;SDS011;20544;50.018;20.010;2022-10-26T16:05:59;13.80;;;4.20;;
23898;SDS011;20544;50.018;20.010;2022-10-26T16:09:18;9.75;;;3.83;;
23898;SDS011;20544;50.018;20.010;2022-10-26T16:12:35;14.38;;;4.48;;
23898;SDS011;20544;50.018;20.010;2022-10-26T16:15:53;14.67;;;4.27;;
23898;SDS011;20544;50.018;20.010;2022-10-26T16:19:14;10.45;;;4.48;;
23898;SDS011;20544;50.018;20.010;2022-10-26T16:22:34;10.35;;;4.13;;
23898;SDS011;20544;50.018;20.010;2022-10-26T16:25:52;9.27;;;3.50;;
23898;SDS011;20544;50.018;20.010;2022-10-26T16:29:09;11.35;;;3.85;;
23898;SDS011;20544;50.018;20.010;2022-10-26T16:32:30;9.15;;;4.45;;
23898;SDS011;20544;50.018;20.010;2022-10-26T16:35:49;10.58;;;4.60;;
23898;SDS011;20544;50.018;20.010;2022-10-26T16:39:10;12.73;;;4.43;;
23898;SDS011;20544;50.018;20.010;2022-10-26T16:42:27;12.50;;;4.98;;
23898;SDS011;20544;50.018;20.010;2022-10-26T16:45:49;14.33;;;6.63;;
23898;SDS011;20544;50.018;20.010;2022-10-26T16:49:06;17.20;;;7.45;;
23898;SDS011;20544;50.018;20.010;2022-10-26T16:52:23;17.10;;;8.05;;
23898;SDS011;20544;50.018;20.010;2022-10-26T16:55:40;20.08;;;10.50;;
23898;SDS011;20544;50.018;20.010;2022-10-26T16:58:56;18.50;;;9.53;;
23898;SDS011;20544;50.018;20.010;2022-10-26T17:02:13;19.58;;;9.98;;
23898;SDS011;20544;50.018;20.010;2022-10-26T17:05:31;21.08;;;11.15;;
23898;SDS011;20544;50.018;20.010;2022-10-26T17:08:58;24.28;;;11.28;;
23898;SDS011;20544;50.018;20.010;2022-10-26T17:12:14;20.90;;;11.13;;
23898;SDS011;20544;50.018;20.010;2022-10-26T17:18:48;21.68;;;11.43;;
23898;SDS011;20544;50.018;20.010;2022-10-26T17:22:05;23.68;;;12.55;;
23898;SDS011;20544;50.018;20.010;2022-10-26T17:25:24;24.98;;;12.85;;
23898;SDS011;20544;50.018;20.010;2022-10-26T17:28:41;27.38;;;14.18;;
23898;SDS011;20544;50.018;20.010;2022-10-26T17:32:03;32.30;;;14.63;;
23898;SDS011;20544;50.018;20.010;2022-10-26T17:35:19;28.65;;;16.50;;
23898;SDS011;20544;50.018;20.010;2022-10-26T17:38:36;23.43;;;13.98;;
23898;SDS011;20544;50.018;20.010;2022-10-26T17:41:54;21.30;;;12.85;;
23898;SDS011;20544;50.018;20.010;2022-10-26T17:45:10;22.83;;;12.50;;
23898;SDS011;20544;50.018;20.010;2022-10-26T17:48:30;22.08;;;12.85;;
23898;SDS011;20544;50.018;20.010;2022-10-26T17:51:46;22.03;;;12.18;;
23898;SDS011;20544;50.018;20.010;2022-10-26T17:55:03;28.05;;;14.48;;
23898;SDS011;20544;50.018;20.010;2022-10-26T17:58:22;30.18;;;15.58;;
23898;SDS011;20544;50.018;20.010;2022-10-26T18:01:39;35.88;;;18.25;;
23898;SDS011;20544;50.018;20.010;2022-10-26T18:04:56;28.95;;;15.33;;
23898;SDS011;20544;50.018;20.010;2022-10-26T18:08:13;23.65;;;13.65;;
23898;SDS011;20544;50.018;20.010;2022-10-26T18:11:29;21.88;;;13.10;;
23898;SDS011;20544;50.018;20.010;2022-10-26T18:14:46;27.53;;;14.00;;
23898;SDS011;20544;50.018;20.010;2022-10-26T18:18:02;20.48;;;11.40;;
23898;SDS011;20544;50.018;20.010;2022-10-26T18:21:19;24.73;;;11.28;;
23898;SDS011;20544;50.018;20.010;2022-10-26T18:24:40;24.98;;;11.15;;
23898;SDS011;20544;50.018;20.010;2022-10-26T18:28:00;20.83;;;11.33;;
23898;SDS011;20544;50.018;20.010;2022-10-26T18:31:18;21.45;;;12.00;;
23898;SDS011;20544;50.018;20.010;2022-10-26T18:34:35;24.10;;;12.57;;
23898;SDS011;20544;50.018;20.010;2022-10-26T18:37:53;17.43;;;11.15;;
23898;SDS011;20544;50.018;20.010;2022-10-26T18:41:10;19.60;;;11.70;;
23898;SDS011;20544;50.018;20.010;2022-10-26T18:44:28;22.68;;;10.60;;
23898;SDS011;20544;50.018;20.010;2022-10-26T18:47:48;21.90;;;11.53;;
23898;SDS011;20544;50.018;20.010;2022-10-26T18:51:06;19.03;;;10.55;;
23898;SDS011;20544;50.018;20.010;2022-10-26T18:54:28;19.68;;;10.35;;
23898;SDS011;20544;50.018;20.010;2022-10-26T18:57:44;20.00;;;10.93;;
23898;SDS011;20544;50.018;20.010;2022-10-26T19:01:06;24.18;;;11.43;;
23898;SDS011;20544;50.018;20.010;2022-10-26T19:04:25;20.70;;;11.55;;
23898;SDS011;20544;50.018;20.010;2022-10-26T19:07:42;21.53;;;11.23;;
23898;SDS011;20544;50.018;20.010;2022-10-26T19:11:01;19.83;;;9.68;;
23898;SDS011;20544;50.018;20.010;2022-10-26T19:14:21;21.10;;;11.25;;
23898;SDS011;20544;50.018;20.010;2022-10-26T19:17:40;22.40;;;10.88;;
23898;SDS011;20544;50.018;20.010;2022-10-26T19:20:59;25.60;;;11.13;;
23898;SDS011;20544;50.018;20.010;2022-10-26T19:24:19;28.83;;;12.08;;
23898;SDS011;20544;50.018;20.010;2022-10-26T19:27:36;19.23;;;11.25;;
23898;SDS011;20544;50.018;20.010;2022-10-26T19:30:53;22.33;;;11.73;;
23898;SDS011;20544;50.018;20.010;2022-10-26T19:34:10;26.03;;;11.55;;
23898;SDS011;20544;50.018;20.010;2022-10-26T19:37:28;25.65;;;11.30;;
23898;SDS011;20544;50.018;20.010;2022-10-26T19:40:44;23.93;;;10.73;;
23898;SDS011;20544;50.018;20.010;2022-10-26T19:44:03;23.43;;;11.75;;
23898;SDS011;20544;50.018;20.010;2022-10-26T19:47:24;22.10;;;10.83;;
23898;SDS011;20544;50.018;20.010;2022-10-26T19:50:40;21.98;;;10.50;;
23898;SDS011;20544;50.018;20.010;2022-10-26T19:54:02;19.65;;;9.58;;
23898;SDS011;20544;50.018;20.010;2022-10-26T19:57:18;16.43;;;9.48;;
23898;SDS011;20544;50.018;20.010;2022-10-26T20:00:35;20.52;;;10.60;;
23898;SDS011;20544;50.018;20.010;2022-10-26T20:03:53;22.27;;;11.00;;
23898;SDS011;20544;50.018;20.010;2022-10-26T20:07:10;23.70;;;10.98;;